Time;durP1;ratioP1;P1;durP2;ratioP2;P2;SDS_P1;SDS_P2;PMS_P1;PMS_P2;Temp;Humidity;BMP_temperature;BMP_pressure;BME280_temperature;BME280_humidity;BME280_pressure;Samples;Min_cycle;Max_cycle;Signal;HPM_P1;HPM_P2
2023/12/01 00:00:25;;;;;;;57.03;17.23;;;;;;;;;;4986950;28;20023;-89
2023/12/01 00:02:50;;;;;;;59.87;18.60;;;;;;;;;;4984031;28;20026;-88
2023/12/01 00:05:15;;;;;;;61.33;20.87;;;;;;;;;;4978375;28;20023;-88
2023/12/01 00:07:41;;;;;;;56.87;19.37;;;;;;;;;;4986690;28;20720;-89
2023/12/01 00:10:10;;;;;;;59.07;19.60;;;;;;;;;;4981202;28;20046;-88
2023/12/01 00:12:36;;;;;;;49.08;16.33;;;;;;;;;;4959805;28;20101;-88
2023/12/01 00:15:01;;;;;;;59.50;19.98;;;;;;;;;;4973899;28;20055;-89
2023/12/01 00:17:26;;;;;;;58.47;19.57;;;;;;;;;;4938941;28;20023;-89
2023/12/01 00:19:52;;;;;;;61.27;19.87;;;;;;;;;;4941054;28;20031;-88
2023/12/01 00:22:17;;;;;;;63.28;21.20;;;;;;;;;;4968929;28;20057;-88
2023/12/01 00:24:42;;;;;;;54.17;18.47;;;;;;;;;;4944929;28;20077;-89
2023/12/01 00:27:08;;;;;;;56.07;17.47;;;;;;;;;;4963067;28;20030;-88
2023/12/01 00:29:33;;;;;;;59.50;19.17;;;;;;;;;;4969540;28;20257;-88
2023/12/01 00:31:58;;;;;;;57.83;20.50;;;;;;;;;;4956180;29;20476;-88
2023/12/01 00:34:23;;;;;;;60.50;18.80;;;;;;;;;;4979421;28;20086;-88
2023/12/01 00:36:49;;;;;;;56.13;18.10;;;;;;;;;;4986516;28;20030;-89
2023/12/01 00:39:14;;;;;;;60.60;19.77;;;;;;;;;;4979063;28;20042;-88
2023/12/01 00:41:39;;;;;;;60.30;18.87;;;;;;;;;;4988403;28;20026;-89
2023/12/01 00:44:04;;;;;;;55.40;18.57;;;;;;;;;;4990980;28;19999;-88
2023/12/01 00:46:29;;;;;;;62.17;19.40;;;;;;;;;;4976990;28;20463;-88
2023/12/01 00:48:54;;;;;;;61.87;19.87;;;;;;;;;;4972562;28;20405;-89
2023/12/01 00:51:20;;;;;;;58.17;19.17;;;;;;;;;;4972522;28;20081;-89
2023/12/01 00:53:48;;;;;;;56.67;19.00;;;;;;;;;;4955346;28;20110;-89
2023/12/01 00:56:13;;;;;;;60.10;19.00;;;;;;;;;;4973135;28;20418;-89
2023/12/01 00:58:39;;;;;;;53.43;19.53;;;;;;;;;;4956433;28;20027;-89
2023/12/01 01:01:05;;;;;;;60.70;19.13;;;;;;;;;;4963525;28;20297;-89
2023/12/01 01:03:31;;;;;;;62.93;18.93;;;;;;;;;;4973716;28;20382;-88
2023/12/01 01:05:56;;;;;;;61.43;19.67;;;;;;;;;;4971972;28;20274;-89
2023/12/01 01:08:21;;;;;;;57.60;18.43;;;;;;;;;;4972989;28;20110;-89
2023/12/01 01:10:46;;;;;;;59.80;18.37;;;;;;;;;;4970979;28;20499;-89
2023/12/01 01:13:11;;;;;;;58.90;18.63;;;;;;;;;;4970340;28;20041;-89
2023/12/01 01:15:36;;;;;;;63.60;18.70;;;;;;;;;;4972116;28;20034;-89
2023/12/01 01:18:02;;;;;;;68.03;20.13;;;;;;;;;;4972385;28;20023;-88
2023/12/01 01:20:27;;;;;;;67.93;20.00;;;;;;;;;;4954376;28;20101;-89
2023/12/01 01:22:52;;;;;;;68.93;20.43;;;;;;;;;;4973568;28;20094;-89
2023/12/01 01:25:17;;;;;;;59.97;17.80;;;;;;;;;;4973816;28;20023;-88
2023/12/01 01:27:42;;;;;;;62.27;17.70;;;;;;;;;;4972643;28;20098;-88
2023/12/01 01:30:08;;;;;;;62.87;17.80;;;;;;;;;;4962676;28;20666;-89
2023/12/01 01:32:33;;;;;;;64.03;20.17;;;;;;;;;;4966900;28;20148;-88
2023/12/01 01:34:58;;;;;;;63.30;19.40;;;;;;;;;;4969655;28;20027;-89
2023/12/01 01:37:23;;;;;;;61.20;17.27;;;;;;;;;;4977004;28;20129;-88
2023/12/01 01:39:49;;;;;;;65.20;18.17;;;;;;;;;;4982432;28;20517;-89
2023/12/01 01:42:14;;;;;;;63.77;18.80;;;;;;;;;;4973307;28;20603;-90
2023/12/01 01:44:39;;;;;;;73.70;20.47;;;;;;;;;;4983298;28;20018;-87
2023/12/01 01:47:05;;;;;;;67.87;20.13;;;;;;;;;;4989254;28;20018;-85
2023/12/01 01:49:31;;;;;;;72.22;19.23;;;;;;;;;;4976275;28;20091;-87
2023/12/01 01:51:58;;;;;;;69.87;19.73;;;;;;;;;;4967552;28;20438;-87
2023/12/01 01:54:23;;;;;;;71.85;20.10;;;;;;;;;;4964961;28;20019;-88
2023/12/01 01:56:50;;;;;;;64.70;18.87;;;;;;;;;;4957096;28;20106;-87
2023/12/01 01:59:19;;;;;;;70.57;18.85;;;;;;;;;;4970842;28;20043;-88
2023/12/01 02:01:45;;;;;;;64.15;18.75;;;;;;;;;;5680277;23;20392;-87
2023/12/01 02:04:11;;;;;;;66.88;19.55;;;;;;;;;;4936037;29;20087;-88
2023/12/01 02:06:37;;;;;;;66.87;18.13;;;;;;;;;;4938101;29;20031;-87
2023/12/01 02:09:03;;;;;;;64.78;19.80;;;;;;;;;;4935338;29;20054;-87
2023/12/01 02:11:28;;;;;;;57.90;17.00;;;;;;;;;;4935292;29;20043;-88
2023/12/01 02:13:53;;;;;;;60.07;17.53;;;;;;;;;;4955187;29;20069;-88
2023/12/01 02:16:19;;;;;;;62.03;19.00;;;;;;;;;;4950143;29;20133;-88
2023/12/01 02:18:44;;;;;;;69.25;20.08;;;;;;;;;;4946937;29;20082;-87
2023/12/01 02:21:09;;;;;;;63.80;19.53;;;;;;;;;;4952233;28;20023;-88
2023/12/01 02:23:35;;;;;;;67.33;19.83;;;;;;;;;;4934506;29;20024;-88
2023/12/01 02:26:01;;;;;;;63.23;18.27;;;;;;;;;;4933967;29;20017;-88
2023/12/01 02:28:27;;;;;;;67.63;20.55;;;;;;;;;;4950668;28;20020;-87
2023/12/01 02:30:54;;;;;;;65.03;18.88;;;;;;;;;;4928650;29;20383;-87
2023/12/01 02:33:22;;;;;;;65.67;18.73;;;;;;;;;;4932800;29;20040;-88
2023/12/01 02:35:48;;;;;;;61.78;18.75;;;;;;;;;;4934814;29;20040;-87
2023/12/01 02:38:14;;;;;;;62.45;17.75;;;;;;;;;;4948570;29;20023;-87
2023/12/01 02:40:49;;;;;;;76.25;19.13;;;;;;;;;;4953761;28;20039;-88
2023/12/01 02:43:14;;;;;;;66.47;18.93;;;;;;;;;;4935584;29;20030;-88
2023/12/01 02:45:40;;;;;;;70.40;19.90;;;;;;;;;;4942061;29;20039;-87
2023/12/01 02:48:06;;;;;;;70.67;19.70;;;;;;;;;;4936300;29;20020;-86
2023/12/01 02:50:31;;;;;;;68.50;18.52;;;;;;;;;;4938814;28;20019;-86
2023/12/01 02:52:56;;;;;;;60.73;17.97;;;;;;;;;;4934771;29;20563;-86
2023/12/01 02:55:22;;;;;;;65.87;19.27;;;;;;;;;;4941390;29;20118;-88
2023/12/01 02:57:47;;;;;;;72.20;20.90;;;;;;;;;;4935631;29;20436;-87
2023/12/01 03:00:13;;;;;;;78.30;20.77;;;;;;;;;;4931218;29;20789;-88
2023/12/01 03:02:41;;;;;;;78.10;19.95;;;;;;;;;;4942389;29;20107;-88
2023/12/01 03:05:07;;;;;;;76.25;21.10;;;;;;;;;;4939166;29;20027;-88
2023/12/01 03:07:33;;;;;;;71.45;20.10;;;;;;;;;;4943469;28;20028;-87
2023/12/01 03:09:58;;;;;;;66.97;17.90;;;;;;;;;;4948894;28;20027;-87
2023/12/01 03:12:23;;;;;;;75.50;19.57;;;;;;;;;;4933910;29;20114;-87
2023/12/01 03:14:49;;;;;;;62.97;18.53;;;;;;;;;;4940581;29;20039;-87
2023/12/01 03:17:14;;;;;;;69.83;18.40;;;;;;;;;;4952563;28;20015;-87
2023/12/01 03:19:39;;;;;;;74.33;19.40;;;;;;;;;;4935945;29;20030;-87
2023/12/01 03:22:04;;;;;;;72.70;19.03;;;;;;;;;;4936317;29;20345;-88
2023/12/01 03:24:29;;;;;;;71.37;20.53;;;;;;;;;;4934409;29;20983;-88
2023/12/01 03:26:54;;;;;;;88.07;22.13;;;;;;;;;;4937273;29;20015;-87
2023/12/01 03:29:20;;;;;;;76.43;19.87;;;;;;;;;;4949775;29;20027;-87
2023/12/01 03:31:45;;;;;;;80.37;20.73;;;;;;;;;;4938545;29;20467;-86
2023/12/01 03:34:10;;;;;;;92.60;23.93;;;;;;;;;;4942591;29;20066;-87
2023/12/01 03:36:35;;;;;;;84.77;20.53;;;;;;;;;;4934021;29;20403;-87
2023/12/01 03:39:00;;;;;;;89.67;22.27;;;;;;;;;;4944349;29;20077;-86
2023/12/01 03:41:26;;;;;;;86.23;22.17;;;;;;;;;;4934641;28;20039;-86
2023/12/01 03:43:51;;;;;;;89.40;22.53;;;;;;;;;;4952458;29;20046;-87
2023/12/01 03:46:16;;;;;;;94.17;22.07;;;;;;;;;;4942254;29;20115;-86
2023/12/01 03:48:41;;;;;;;86.80;21.50;;;;;;;;;;4934849;28;20086;-87
2023/12/01 03:51:09;;;;;;;84.43;20.60;;;;;;;;;;4936473;29;20399;-86
2023/12/01 03:53:35;;;;;;;66.85;17.15;;;;;;;;;;4940368;28;20662;-86
2023/12/01 03:56:00;;;;;;;66.87;18.20;;;;;;;;;;4935124;29;20111;-87
2023/12/01 03:58:26;;;;;;;71.07;17.93;;;;;;;;;;4942473;29;20027;-88
2023/12/01 04:00:52;;;;;;;71.43;19.13;;;;;;;;;;4941641;28;20031;-87
2023/12/01 04:03:17;;;;;;;78.32;20.35;;;;;;;;;;4951305;29;20470;-87
2023/12/01 04:05:42;;;;;;;69.23;17.13;;;;;;;;;;4940852;29;20023;-87
2023/12/01 04:08:08;;;;;;;81.13;19.17;;;;;;;;;;4936632;29;20070;-87
2023/12/01 04:10:33;;;;;;;78.10;17.43;;;;;;;;;;4933012;29;20094;-87
2023/12/01 04:13:06;;;;;;;75.67;18.63;;;;;;;;;;4947329;29;20037;-88
2023/12/01 04:15:32;;;;;;;89.70;21.35;;;;;;;;;;4944868;28;20035;-87
2023/12/01 04:17:57;;;;;;;86.13;19.85;;;;;;;;;;4932341;29;20023;-88
2023/12/01 04:20:26;;;;;;;84.00;20.90;;;;;;;;;;4932116;29;20031;-88
2023/12/01 04:22:56;;;;;;;75.20;19.80;;;;;;;;;;4934732;29;20095;-87
2023/12/01 04:25:22;;;;;;;79.22;21.55;;;;;;;;;;4937701;29;20023;-88
2023/12/01 04:27:47;;;;;;;91.80;21.40;;;;;;;;;;4948855;28;20506;-87
2023/12/01 04:30:15;;;;;;;86.23;21.13;;;;;;;;;;4948597;28;20019;-88
2023/12/01 04:32:41;;;;;;;95.43;23.48;;;;;;;;;;4941767;28;20141;-87
2023/12/01 04:35:07;;;;;;;88.07;22.25;;;;;;;;;;4934314;29;20057;-88
2023/12/01 04:37:32;;;;;;;90.80;22.57;;;;;;;;;;4933310;29;20024;-87
2023/12/01 04:39:58;;;;;;;87.97;21.50;;;;;;;;;;4943874;28;20011;-88
2023/12/01 04:42:23;;;;;;;68.07;18.13;;;;;;;;;;4930230;29;20424;-86
2023/12/01 04:44:48;;;;;;;91.27;22.17;;;;;;;;;;4932034;29;20305;-87
2023/12/01 04:47:13;;;;;;;91.10;21.40;;;;;;;;;;4934113;29;20016;-88
2023/12/01 04:49:39;;;;;;;93.63;21.70;;;;;;;;;;4933000;29;20019;-90
2023/12/01 04:52:04;;;;;;;90.10;20.67;;;;;;;;;;4933465;29;20030;-90
2023/12/01 04:54:30;;;;;;;83.23;20.80;;;;;;;;;;4933031;29;20637;-88
2023/12/01 04:56:55;;;;;;;86.13;19.93;;;;;;;;;;4932291;29;20028;-88
2023/12/01 04:59:20;;;;;;;89.03;23.07;;;;;;;;;;4934154;29;20032;-91
2023/12/01 05:01:45;;;;;;;77.70;22.03;;;;;;;;;;4936948;29;20035;-89
2023/12/01 05:04:10;;;;;;;99.18;22.25;;;;;;;;;;4939685;29;20380;-88
2023/12/01 05:06:36;;;;;;;101.70;23.50;;;;;;;;;;4938355;29;20028;-89
2023/12/01 05:09:01;;;;;;;93.97;22.83;;;;;;;;;;4939023;29;20147;-89
2023/12/01 05:11:26;;;;;;;95.83;23.50;;;;;;;;;;4937217;29;20027;-88
2023/12/01 05:13:51;;;;;;;96.90;24.53;;;;;;;;;;4945490;29;20023;-88
2023/12/01 05:16:17;;;;;;;87.37;21.97;;;;;;;;;;4938607;29;20035;-88
2023/12/01 05:18:42;;;;;;;97.33;23.57;;;;;;;;;;4936091;29;20027;-89
2023/12/01 05:21:08;;;;;;;88.63;22.33;;;;;;;;;;4929826;29;20050;-91
2023/12/01 05:23:34;;;;;;;84.13;22.80;;;;;;;;;;4952408;29;20087;-89
2023/12/01 05:25:59;;;;;;;90.18;22.67;;;;;;;;;;4946129;28;20551;-89
2023/12/01 05:28:25;;;;;;;86.60;22.33;;;;;;;;;;4941217;29;20431;-89
2023/12/01 05:30:51;;;;;;;81.47;21.40;;;;;;;;;;4941243;29;20038;-89
2023/12/01 05:33:16;;;;;;;67.47;18.70;;;;;;;;;;4952398;29;20028;-89
2023/12/01 05:35:42;;;;;;;76.13;21.63;;;;;;;;;;4944029;29;20462;-93
2023/12/01 05:38:08;;;;;;;77.97;21.23;;;;;;;;;;4939704;29;20436;-90
2023/12/01 05:40:37;;;;;;;74.50;20.60;;;;;;;;;;4940517;29;20107;-91
2023/12/01 05:43:02;;;;;;;75.07;21.27;;;;;;;;;;4939704;29;20015;-90
2023/12/01 05:45:29;;;;;;;77.85;21.17;;;;;;;;;;4940488;29;20115;-89
2023/12/01 05:47:56;;;;;;;73.10;21.17;;;;;;;;;;4942788;29;20031;-95
2023/12/01 05:50:28;;;;;;;75.85;20.13;;;;;;;;;;4947035;29;20531;-94
2023/12/01 05:52:56;;;;;;;73.25;21.35;;;;;;;;;;4951923;29;20038;-92
2023/12/01 05:55:22;;;;;;;71.57;19.65;;;;;;;;;;4952839;29;20074;-90
2023/12/01 05:57:48;;;;;;;76.13;21.25;;;;;;;;;;4941060;29;20433;-92
2023/12/01 06:00:15;;;;;;;70.57;21.40;;;;;;;;;;4942533;29;20035;-91
2023/12/01 06:02:41;;;;;;;73.20;21.20;;;;;;;;;;4926355;29;20720;-91
2023/12/01 06:05:06;;;;;;;69.03;20.38;;;;;;;;;;4939858;29;20032;-90
2023/12/01 06:07:31;;;;;;;74.33;21.67;;;;;;;;;;4943102;29;20154;-90
2023/12/01 06:09:57;;;;;;;73.07;21.17;;;;;;;;;;4940955;28;20392;-92
2023/12/01 06:12:22;;;;;;;50.15;16.25;;;;;;;;;;4943338;29;20087;-91
2023/12/01 06:14:47;;;;;;;63.23;19.80;;;;;;;;;;4938154;29;20028;-94
2023/12/01 06:17:13;;;;;;;75.80;21.60;;;;;;;;;;4937417;29;20016;-89
2023/12/01 06:19:38;;;;;;;64.30;20.97;;;;;;;;;;4933907;29;20099;-89
2023/12/01 06:22:03;;;;;;;64.33;20.23;;;;;;;;;;4936361;29;20106;-89
2023/12/01 06:24:32;;;;;;;71.47;19.87;;;;;;;;;;4935828;29;20103;-89
2023/12/01 06:27:00;;;;;;;66.30;20.45;;;;;;;;;;4934765;29;20467;-89
2023/12/01 06:29:25;;;;;;;66.00;20.48;;;;;;;;;;4931896;29;20057;-88
2023/12/01 06:31:50;;;;;;;66.73;19.13;;;;;;;;;;4932935;29;20019;-86
2023/12/01 06:34:15;;;;;;;63.60;19.93;;;;;;;;;;4933794;29;20034;-87
2023/12/01 06:36:40;;;;;;;56.97;18.50;;;;;;;;;;4933435;29;20027;-88
2023/12/01 06:39:10;;;;;;;59.13;18.30;;;;;;;;;;4925265;29;20016;-88
2023/12/01 06:41:35;;;;;;;59.88;18.85;;;;;;;;;;4934576;29;20475;-89
2023/12/01 06:44:01;;;;;;;56.77;18.40;;;;;;;;;;4935543;29;20060;-89
2023/12/01 06:46:26;;;;;;;55.07;17.07;;;;;;;;;;4934668;29;20115;-88
2023/12/01 06:48:52;;;;;;;55.70;17.80;;;;;;;;;;4934159;29;20429;-88
2023/12/01 06:51:17;;;;;;;59.55;17.77;;;;;;;;;;4934168;29;20578;-89
2023/12/01 06:53:42;;;;;;;57.73;17.60;;;;;;;;;;4934210;29;20051;-88
2023/12/01 06:56:08;;;;;;;56.67;19.10;;;;;;;;;;4934704;29;20039;-88
2023/12/01 06:58:33;;;;;;;62.17;20.27;;;;;;;;;;4934738;29;20057;-88
2023/12/01 07:01:00;;;;;;;62.73;18.57;;;;;;;;;;4932496;29;20458;-89
2023/12/01 07:03:25;;;;;;;65.80;19.70;;;;;;;;;;4933934;29;20038;-89
2023/12/01 07:05:51;;;;;;;57.60;18.10;;;;;;;;;;4934170;29;20028;-89
2023/12/01 07:08:17;;;;;;;57.15;18.17;;;;;;;;;;4930700;29;20035;-89
2023/12/01 07:10:42;;;;;;;56.67;18.27;;;;;;;;;;4933199;29;20172;-89
2023/12/01 07:13:08;;;;;;;59.63;19.70;;;;;;;;;;4933149;29;20028;-92
2023/12/01 07:15:33;;;;;;;61.30;18.73;;;;;;;;;;4932812;29;20559;-86
2023/12/01 07:17:58;;;;;;;56.20;18.53;;;;;;;;;;4932439;29;20022;-86
2023/12/01 07:20:24;;;;;;;58.83;17.37;;;;;;;;;;4934456;29;20024;-88
2023/12/01 07:22:49;;;;;;;51.40;16.87;;;;;;;;;;4933800;29;20016;-87
2023/12/01 07:25:22;;;;;;;53.25;17.88;;;;;;;;;;4934396;29;20020;-88
2023/12/01 07:28:09;;;;;;;53.25;17.08;;;;;;;;;;4934183;29;20051;-87
2023/12/01 07:30:34;;;;;;;54.60;16.77;;;;;;;;;;4931991;29;20024;-86
2023/12/01 07:33:00;;;;;;;54.33;16.83;;;;;;;;;;4929939;29;20286;-86
2023/12/01 07:35:25;;;;;;;56.97;17.37;;;;;;;;;;4929888;29;20036;-86
2023/12/01 07:37:52;;;;;;;51.10;16.70;;;;;;;;;;4931138;29;20059;-86
2023/12/01 07:40:19;;;;;;;50.85;16.10;;;;;;;;;;4931800;29;20475;-85
2023/12/01 07:42:44;;;;;;;53.03;17.20;;;;;;;;;;4933856;29;20047;-86
2023/12/01 07:45:11;;;;;;;52.92;16.30;;;;;;;;;;4934594;29;20063;-89
2023/12/01 07:47:37;;;;;;;51.45;16.13;;;;;;;;;;4934839;29;20098;-89
2023/12/01 07:50:03;;;;;;;52.10;16.23;;;;;;;;;;4932549;29;20460;-87
2023/12/01 07:52:28;;;;;;;47.25;15.32;;;;;;;;;;4941857;29;20348;-90
2023/12/01 07:54:53;;;;;;;57.10;18.27;;;;;;;;;;4948545;29;20570;-90
2023/12/01 07:57:18;;;;;;;54.87;16.03;;;;;;;;;;4943703;29;20368;-91
2023/12/01 07:59:44;;;;;;;52.07;17.17;;;;;;;;;;4943709;29;20028;-90
2023/12/01 08:02:09;;;;;;;57.87;18.23;;;;;;;;;;4942872;29;20031;-91
2023/12/01 08:04:34;;;;;;;49.80;17.90;;;;;;;;;;4937275;29;20028;-89
2023/12/01 08:07:00;;;;;;;51.03;16.07;;;;;;;;;;4947065;29;20035;-91
2023/12/01 08:09:25;;;;;;;58.40;17.93;;;;;;;;;;4955295;28;20100;-95
2023/12/01 08:11:50;;;;;;;53.03;17.50;;;;;;;;;;4948389;29;20044;-89
2023/12/01 08:14:15;;;;;;;60.17;17.90;;;;;;;;;;4945476;29;20016;-91
2023/12/01 08:16:42;;;;;;;61.43;17.50;;;;;;;;;;4937377;29;20314;-88
2023/12/01 08:19:09;;;;;;;60.93;17.57;;;;;;;;;;4933817;29;20031;-89
2023/12/01 08:21:35;;;;;;;52.20;16.98;;;;;;;;;;4939496;29;20070;-89
2023/12/01 08:24:00;;;;;;;51.90;17.27;;;;;;;;;;4937536;28;20020;-89
2023/12/01 08:26:25;;;;;;;55.10;15.97;;;;;;;;;;4935474;29;20027;-89
2023/12/01 08:28:53;;;;;;;57.10;17.67;;;;;;;;;;4933370;29;20059;-89
2023/12/01 08:31:18;;;;;;;53.30;16.05;;;;;;;;;;4932419;29;20038;-88
2023/12/01 08:33:45;;;;;;;49.43;16.70;;;;;;;;;;4934129;29;20032;-90
2023/12/01 08:36:10;;;;;;;49.55;16.95;;;;;;;;;;4936173;29;20051;-89
2023/12/01 08:38:35;;;;;;;49.63;16.10;;;;;;;;;;4933331;29;20377;-88
2023/12/01 08:41:01;;;;;;;51.37;16.07;;;;;;;;;;4932846;29;20027;-90
2023/12/01 08:43:27;;;;;;;54.97;16.47;;;;;;;;;;4933289;29;20024;-90
2023/12/01 08:45:53;;;;;;;49.38;16.40;;;;;;;;;;4933367;29;20031;-89
2023/12/01 08:48:18;;;;;;;47.30;14.13;;;;;;;;;;4934234;29;20114;-87
2023/12/01 08:50:45;;;;;;;48.00;15.03;;;;;;;;;;4930697;29;20042;-88
2023/12/01 08:53:10;;;;;;;45.60;14.75;;;;;;;;;;4934326;29;20039;-88
2023/12/01 08:55:35;;;;;;;48.70;14.87;;;;;;;;;;4933597;29;20038;-87
2023/12/01 08:58:00;;;;;;;41.63;14.07;;;;;;;;;;4933688;29;20027;-87
2023/12/01 09:00:25;;;;;;;44.33;13.37;;;;;;;;;;4932423;29;20037;-87
2023/12/01 09:02:52;;;;;;;37.70;13.03;;;;;;;;;;4933869;29;20054;-88
2023/12/01 09:05:17;;;;;;;38.90;12.10;;;;;;;;;;4932611;29;20024;-87
2023/12/01 09:07:43;;;;;;;39.83;12.50;;;;;;;;;;4935033;29;20031;-87
2023/12/01 09:10:19;;;;;;;29.40;10.73;;;;;;;;;;4937786;29;20395;-88
2023/12/01 09:12:46;;;;;;;34.20;11.80;;;;;;;;;;4954169;28;20023;-88
2023/12/01 09:15:12;;;;;;;36.65;12.88;;;;;;;;;;4952797;28;20031;-87
2023/12/01 09:17:37;;;;;;;34.15;12.75;;;;;;;;;;4935965;29;20031;-87
2023/12/01 09:20:02;;;;;;;31.97;11.10;;;;;;;;;;4935184;29;20016;-88
2023/12/01 09:22:28;;;;;;;31.87;11.90;;;;;;;;;;4934857;29;20032;-87
2023/12/01 09:24:53;;;;;;;34.40;12.67;;;;;;;;;;4914929;29;20031;-88
2023/12/01 09:27:19;;;;;;;30.00;9.43;;;;;;;;;;4919959;29;20072;-88
2023/12/01 09:29:44;;;;;;;32.88;11.65;;;;;;;;;;4937146;29;20039;-88
2023/12/01 09:32:09;;;;;;;33.20;11.53;;;;;;;;;;4938690;29;20067;-88
2023/12/01 09:34:35;;;;;;;29.87;10.67;;;;;;;;;;4938776;29;20430;-87
2023/12/01 09:37:01;;;;;;;30.33;10.87;;;;;;;;;;4935344;29;20046;-87
2023/12/01 09:39:27;;;;;;;30.85;12.00;;;;;;;;;;4936678;29;20012;-87
2023/12/01 09:41:54;;;;;;;31.43;11.00;;;;;;;;;;4936893;29;20082;-88
2023/12/01 09:44:19;;;;;;;29.27;10.45;;;;;;;;;;4933096;29;20031;-88
2023/12/01 09:46:47;;;;;;;28.73;10.67;;;;;;;;;;4938009;29;20150;-88
2023/12/01 09:49:13;;;;;;;27.45;11.52;;;;;;;;;;4956120;28;20020;-87
2023/12/01 09:51:38;;;;;;;23.90;9.23;;;;;;;;;;4937326;29;20490;-87
2023/12/01 09:54:03;;;;;;;30.93;12.27;;;;;;;;;;4934352;29;20027;-88
2023/12/01 09:56:29;;;;;;;30.33;11.73;;;;;;;;;;4935856;29;20039;-86
2023/12/01 09:58:58;;;;;;;27.17;10.30;;;;;;;;;;4936166;29;20109;-87
2023/12/01 10:01:24;;;;;;;26.38;10.30;;;;;;;;;;4919188;29;20046;-88
2023/12/01 10:03:51;;;;;;;29.20;11.20;;;;;;;;;;4935564;29;20028;-87
2023/12/01 10:06:16;;;;;;;33.33;11.60;;;;;;;;;;4935401;29;20842;-87
2023/12/01 10:08:42;;;;;;;28.20;11.07;;;;;;;;;;4935694;29;20027;-87
2023/12/01 10:11:20;;;;;;;27.33;10.90;;;;;;;;;;4934484;29;20474;-87
2023/12/01 10:13:45;;;;;;;28.60;11.17;;;;;;;;;;4937859;29;20488;-88
2023/12/01 10:16:11;;;;;;;28.00;10.57;;;;;;;;;;4937088;29;20038;-88
2023/12/01 10:18:36;;;;;;;22.83;9.47;;;;;;;;;;4936453;29;20362;-87
2023/12/01 10:21:03;;;;;;;27.65;10.80;;;;;;;;;;4967769;28;20028;-88
2023/12/01 10:23:28;;;;;;;29.40;10.97;;;;;;;;;;4937974;29;20475;-87
2023/12/01 10:25:53;;;;;;;27.67;11.30;;;;;;;;;;4935058;29;20497;-88
2023/12/01 10:28:19;;;;;;;30.13;10.60;;;;;;;;;;4936974;29;20287;-88
2023/12/01 10:30:53;;;;;;;27.87;11.17;;;;;;;;;;4938072;29;20031;-87
2023/12/01 10:33:22;;;;;;;27.35;10.43;;;;;;;;;;4938014;29;20039;-87
2023/12/01 10:35:57;;;;;;;30.70;11.70;;;;;;;;;;4936225;29;20518;-87
2023/12/01 10:38:24;;;;;;;27.25;10.18;;;;;;;;;;4919172;29;20032;-87
2023/12/01 10:40:50;;;;;;;30.17;10.80;;;;;;;;;;4918228;29;20111;-87
2023/12/01 10:43:15;;;;;;;28.48;11.18;;;;;;;;;;4930428;29;20051;-87
2023/12/01 10:45:40;;;;;;;28.67;11.50;;;;;;;;;;4935547;29;20167;-85
2023/12/01 10:48:06;;;;;;;23.60;10.40;;;;;;;;;;4936902;29;20026;-88
2023/12/01 10:50:32;;;;;;;28.47;10.60;;;;;;;;;;4936373;29;20020;-85
2023/12/01 10:52:58;;;;;;;22.52;9.90;;;;;;;;;;4935898;29;20031;-87
2023/12/01 10:55:24;;;;;;;26.33;11.38;;;;;;;;;;4936399;29;20053;-87
2023/12/01 10:57:50;;;;;;;26.40;10.18;;;;;;;;;;4931730;29;20460;-85
2023/12/01 11:00:31;;;;;;;24.23;9.97;;;;;;;;;;4933849;29;20472;-85
2023/12/01 11:03:00;;;;;;;21.92;7.70;;;;;;;;;;4933852;29;20110;-84
2023/12/01 11:05:27;;;;;;;22.00;9.45;;;;;;;;;;4932895;29;20063;-83
2023/12/01 11:08:16;;;;;;;23.90;9.15;;;;;;;;;;4932744;29;20442;-85
2023/12/01 11:11:00;;;;;;;24.50;9.60;;;;;;;;;;4932246;28;20467;-84
2023/12/01 11:13:38;;;;;;;22.03;9.33;;;;;;;;;;4933038;29;20034;-84
2023/12/01 11:16:04;;;;;;;20.57;9.20;;;;;;;;;;4933114;29;20450;-85
2023/12/01 11:18:30;;;;;;;21.08;8.45;;;;;;;;;;4934178;29;20091;-86
2023/12/01 11:20:55;;;;;;;24.20;9.80;;;;;;;;;;4933310;29;20031;-88
2023/12/01 11:23:21;;;;;;;25.80;9.70;;;;;;;;;;4935068;29;20028;-85
2023/12/01 11:25:48;;;;;;;26.23;10.50;;;;;;;;;;4933689;29;20098;-85
2023/12/01 11:28:22;;;;;;;23.38;9.65;;;;;;;;;;4934708;29;20024;-85
2023/12/01 11:31:08;;;;;;;26.90;10.40;;;;;;;;;;4931116;29;20110;-85
2023/12/01 11:33:47;;;;;;;25.77;10.97;;;;;;;;;;4932983;29;20078;-85
2023/12/01 11:36:19;;;;;;;24.30;9.68;;;;;;;;;;4932063;29;20081;-85
2023/12/01 11:39:08;;;;;;;25.52;10.13;;;;;;;;;;4933308;29;20679;-85
2023/12/01 11:41:33;;;;;;;30.15;11.13;;;;;;;;;;4934582;29;20166;-87
2023/12/01 11:44:04;;;;;;;23.80;9.13;;;;;;;;;;4934188;29;20106;-83
2023/12/01 11:46:30;;;;;;;24.75;9.38;;;;;;;;;;4929063;29;20488;-86
2023/12/01 11:48:55;;;;;;;27.27;10.97;;;;;;;;;;4915136;29;20038;-85
2023/12/01 11:51:22;;;;;;;22.27;9.07;;;;;;;;;;4946026;29;20406;-88
2023/12/01 11:53:57;;;;;;;23.48;9.73;;;;;;;;;;4944156;28;20539;-87
2023/12/01 11:56:24;;;;;;;22.88;8.85;;;;;;;;;;4931794;29;20877;-87
2023/12/01 11:58:51;;;;;;;21.48;9.35;;;;;;;;;;4933953;29;20050;-87
2023/12/01 12:01:16;;;;;;;23.30;9.77;;;;;;;;;;4948486;29;20448;-87
2023/12/01 12:03:41;;;;;;;23.17;9.30;;;;;;;;;;4965079;28;20036;-87
2023/12/01 12:06:07;;;;;;;23.47;9.27;;;;;;;;;;4932678;29;20283;-86
2023/12/01 12:08:33;;;;;;;21.65;8.93;;;;;;;;;;4934004;29;20024;-86
2023/12/01 12:10:59;;;;;;;20.00;9.03;;;;;;;;;;4933127;29;20032;-85
2023/12/01 12:13:24;;;;;;;26.42;11.00;;;;;;;;;;4933368;29;20027;-85
2023/12/01 12:15:49;;;;;;;28.67;10.00;;;;;;;;;;4932415;29;20043;-85
2023/12/01 12:18:15;;;;;;;23.63;8.43;;;;;;;;;;4931410;29;20505;-86
2023/12/01 12:20:40;;;;;;;24.60;9.40;;;;;;;;;;4929682;29;20023;-85
2023/12/01 12:23:05;;;;;;;26.40;9.57;;;;;;;;;;4932559;29;20072;-86
2023/12/01 12:25:37;;;;;;;24.23;10.10;;;;;;;;;;4934560;29;20074;-86
2023/12/01 12:28:09;;;;;;;23.73;9.40;;;;;;;;;;4934832;28;20400;-86
2023/12/01 12:30:35;;;;;;;21.05;8.73;;;;;;;;;;4926737;29;20503;-86
2023/12/01 12:33:01;;;;;;;22.43;8.43;;;;;;;;;;4913508;29;20027;-85
2023/12/01 12:35:26;;;;;;;19.67;8.10;;;;;;;;;;4912071;29;20036;-86
2023/12/01 12:37:51;;;;;;;21.47;8.80;;;;;;;;;;4916554;29;20047;-85
2023/12/01 12:40:16;;;;;;;19.00;8.40;;;;;;;;;;4931355;29;20031;-85
2023/12/01 12:42:53;;;;;;;20.07;8.50;;;;;;;;;;4931992;29;20059;-85
2023/12/01 12:45:19;;;;;;;18.55;7.75;;;;;;;;;;4932310;29;20102;-85
2023/12/01 12:47:45;;;;;;;21.35;8.52;;;;;;;;;;4931799;29;20034;-85
2023/12/01 12:50:10;;;;;;;22.00;8.10;;;;;;;;;;4931260;29;20028;-85
2023/12/01 12:52:36;;;;;;;20.58;8.13;;;;;;;;;;4914543;29;20157;-86
2023/12/01 12:55:01;;;;;;;21.53;8.20;;;;;;;;;;4932753;29;20035;-86
2023/12/01 12:57:26;;;;;;;20.47;8.63;;;;;;;;;;4932354;29;20028;-85
2023/12/01 12:59:54;;;;;;;18.50;8.50;;;;;;;;;;4932157;29;20051;-85
2023/12/01 13:02:19;;;;;;;19.10;7.68;;;;;;;;;;4933060;29;20059;-85
2023/12/01 13:04:44;;;;;;;21.80;8.63;;;;;;;;;;4932261;29;20404;-85
2023/12/01 13:07:10;;;;;;;19.40;8.10;;;;;;;;;;4930721;29;20024;-85
2023/12/01 13:09:37;;;;;;;20.27;7.93;;;;;;;;;;4932586;29;20019;-85
2023/12/01 13:12:02;;;;;;;19.98;8.25;;;;;;;;;;4931193;29;20024;-86
2023/12/01 13:14:28;;;;;;;21.20;9.00;;;;;;;;;;4932037;29;20036;-85
2023/12/01 13:16:53;;;;;;;23.50;7.27;;;;;;;;;;4932072;29;20027;-85
2023/12/01 13:19:18;;;;;;;22.23;8.67;;;;;;;;;;4963425;28;20020;-86
2023/12/01 13:21:43;;;;;;;22.13;7.87;;;;;;;;;;4932493;29;20417;-85
2023/12/01 13:24:09;;;;;;;22.60;8.23;;;;;;;;;;4935356;29;20043;-85
2023/12/01 13:26:34;;;;;;;20.87;8.43;;;;;;;;;;4935392;29;20350;-85
2023/12/01 13:28:59;;;;;;;19.63;8.30;;;;;;;;;;4936241;29;20114;-85
2023/12/01 13:31:25;;;;;;;19.00;8.10;;;;;;;;;;4934306;29;20035;-85
2023/12/01 13:33:50;;;;;;;16.50;7.03;;;;;;;;;;4936036;29;20028;-85
2023/12/01 13:36:15;;;;;;;25.23;8.00;;;;;;;;;;4935774;29;20086;-84
2023/12/01 13:38:40;;;;;;;21.10;8.50;;;;;;;;;;4936155;29;20024;-85
2023/12/01 13:41:07;;;;;;;22.53;8.40;;;;;;;;;;4934212;29;20083;-85
2023/12/01 13:43:32;;;;;;;19.15;7.38;;;;;;;;;;4935757;29;20491;-85
2023/12/01 13:45:58;;;;;;;19.30;8.00;;;;;;;;;;4935660;29;20024;-85
2023/12/01 13:48:23;;;;;;;24.67;7.80;;;;;;;;;;4935199;29;20024;-85
2023/12/01 13:50:48;;;;;;;19.97;8.30;;;;;;;;;;4933886;29;20030;-85
2023/12/01 13:53:14;;;;;;;22.07;8.23;;;;;;;;;;4934762;29;20519;-85
2023/12/01 13:55:39;;;;;;;20.97;8.47;;;;;;;;;;4934070;29;20035;-84
2023/12/01 13:58:04;;;;;;;19.63;7.67;;;;;;;;;;4935934;29;20164;-85
2023/12/01 14:00:29;;;;;;;19.07;7.33;;;;;;;;;;4934917;29;20032;-85
2023/12/01 14:02:55;;;;;;;24.70;8.57;;;;;;;;;;4934714;29;20071;-85
2023/12/01 14:05:20;;;;;;;21.37;7.80;;;;;;;;;;4935041;29;20446;-85
2023/12/01 14:07:45;;;;;;;21.95;8.52;;;;;;;;;;4935141;29;20035;-85
2023/12/01 14:10:11;;;;;;;22.63;8.50;;;;;;;;;;4932293;29;20024;-85
2023/12/01 14:12:36;;;;;;;19.73;7.20;;;;;;;;;;4932337;29;20038;-87